Time;durP1;ratioP1;P1;durP2;ratioP2;P2;SDS_P1;SDS_P2;PMS_P1;PMS_P2;Temp;Humidity;BMP_temperature;BMP_pressure;BME280_temperature;BME280_humidity;BME280_pressure;Samples;Min_cycle;Max_cycle;Signal;HPM_P1;HPM_P2
2023/07/21 00:02:01;;;;;;;4.65;3.33;;;;;;;15.83;100.00;101177.38;5199715;28;20386;-73
2023/07/21 00:04:32;;;;;;;;;;;;;;;16.68;100.00;101166.84;5197233;28;20586;-73
2023/07/21 00:07:04;;;;;;;4.00;3.60;;;;;;;15.87;100.00;101160.22;5198698;28;20067;-73
2023/07/21 00:09:35;;;;;;;4.90;3.95;;;;;;;15.75;100.00;101164.94;5197695;28;20032;-73
2023/07/21 00:12:07;;;;;;;4.40;4.00;;;;;;;15.77;100.00;101167.44;5202841;28;20507;-73
2023/07/21 00:14:38;;;;;;;4.60;3.85;;;;;;;15.78;100.00;101162.00;5201221;28;20026;-73
2023/07/21 00:17:09;;;;;;;6.22;4.07;;;;;;;15.77;100.00;101162.16;5204836;28;20051;-71
2023/07/21 00:19:41;;;;;;;7.75;4.30;;;;;;;15.76;100.00;101156.06;5199365;28;20030;-71
2023/07/21 00:22:12;;;;;;;5.00;4.50;;;;;;;15.67;100.00;101142.94;5203121;28;20034;-71
2023/07/21 00:24:43;;;;;;;5.30;4.70;;;;;;;15.81;100.00;101160.88;5202807;28;20044;-71
2023/07/21 00:27:17;;;;;;;4.80;4.40;;;;;;;15.79;100.00;101155.72;5203475;28;20089;-71
2023/07/21 00:29:49;;;;;;;4.40;4.00;;;;;;;15.79;100.00;101149.63;5203396;28;20022;-71
2023/07/21 00:32:31;;;;;;;5.30;4.80;;;;;;;15.79;100.00;101149.63;5194802;28;20038;-71
2023/07/21 00:35:12;;;;;;;6.03;4.32;;;;;;;15.68;100.00;101140.16;5199871;28;20530;-71
2023/07/21 00:37:43;;;;;;;5.05;4.45;;;;;;;15.76;100.00;101152.59;5198051;28;20501;-72
2023/07/21 00:40:23;;;;;;;4.50;4.10;;;;;;;15.74;100.00;101151.91;5198144;28;20122;-72
2023/07/21 00:42:57;;;;;;;6.38;4.60;;;;;;;15.77;100.00;101143.66;5202374;28;20227;-72
2023/07/21 00:45:34;;;;;;;7.15;4.60;;;;;;;15.81;100.00;101142.38;5204620;28;20030;-72
2023/07/21 00:48:09;;;;;;;4.85;4.45;;;;;;;15.68;100.00;101132.25;5203212;28;20377;-72
2023/07/21 00:50:47;;;;;;;6.25;4.75;;;;;;;15.86;100.00;101141.91;5199148;28;20483;-73
2023/07/21 00:53:20;;;;;;;5.35;4.85;;;;;;;15.71;100.00;101133.72;5207386;28;20030;-72
2023/07/21 00:55:51;;;;;;;5.38;4.88;;;;;;;15.74;100.00;101136.06;5200979;28;20364;-73
2023/07/21 00:58:23;;;;;;;5.05;4.57;;;;;;;15.71;100.00;101131.91;5201078;28;20073;-72
2023/07/21 01:00:54;;;;;;;6.35;5.22;;;;;;;15.74;100.00;101134.22;5201767;28;20041;-72
2023/07/21 01:03:26;;;;;;;6.03;5.00;;;;;;;15.75;100.00;101132.41;5205580;28;20383;-72
2023/07/21 01:05:58;;;;;;;5.95;5.38;;;;;;;15.71;100.00;101123.97;5200151;28;20360;-73
2023/07/21 01:08:30;;;;;;;5.97;5.35;;;;;;;15.75;100.00;101127.97;5200517;28;20134;-72
2023/07/21 01:11:01;;;;;;;6.53;5.18;;;;;;;15.71;100.00;101121.34;5200486;28;20060;-72
2023/07/21 01:13:33;;;;;;;5.45;4.95;;;;;;;15.67;100.00;101121.81;5205351;28;20030;-73
2023/07/21 01:16:05;;;;;;;6.63;5.93;;;;;;;15.65;100.00;101121.97;5201450;28;20116;-72
2023/07/21 01:18:37;;;;;;;5.70;5.20;;;;;;;15.50;100.00;101103.22;5201008;28;20032;-72
2023/07/21 01:21:14;;;;;;;7.20;5.03;;;;;;;15.67;100.00;101122.63;5202982;28;20785;-72
2023/07/21 01:23:56;;;;;;;6.10;5.05;;;;;;;15.64;100.00;101109.72;5206559;28;20129;-73
2023/07/21 01:26:28;;;;;;;6.25;5.47;;;;;;;15.48;100.00;101109.63;5204876;28;20018;-72
2023/07/21 01:29:00;;;;;;;5.93;5.40;;;;;;;15.46;100.00;101109.78;5199177;28;20126;-73
2023/07/21 01:31:35;;;;;;;5.47;4.97;;;;;;;15.46;100.00;101111.59;5195000;28;20129;-72
2023/07/21 01:34:09;;;;;;;5.28;4.78;;;;;;;15.33;100.00;101109.34;5201383;28;20037;-72
2023/07/21 01:36:42;;;;;;;6.28;4.95;;;;;;;15.30;100.00;101107.88;5199098;28;20025;-73
2023/07/21 01:39:13;;;;;;;8.18;5.95;;;;;;;15.33;100.00;101104.06;5201725;28;20022;-72
2023/07/21 01:41:45;;;;;;;6.20;5.60;;;;;;;15.33;100.00;101112.00;5199772;28;20084;-72
2023/07/21 01:44:21;;;;;;;5.78;5.25;;;;;;;15.28;100.00;101098.44;5196944;28;20030;-72
2023/07/21 01:46:53;;;;;;;5.70;5.20;;;;;;;15.17;100.00;101094.22;5197296;28;20105;-72
2023/07/21 01:49:24;;;;;;;5.82;5.32;;;;;;;15.16;100.00;101100.50;5200985;28;20026;-72
2023/07/21 01:51:57;;;;;;;6.03;5.25;;;;;;;15.16;100.00;101097.88;5199964;28;20030;-72
2023/07/21 01:54:48;;;;;;;5.47;4.97;;;;;;;15.35;100.00;101090.75;5196328;28;20482;-72
2023/07/21 01:57:48;;;;;;;7.22;4.88;;;;;;;15.49;100.00;101098.06;5197003;28;20037;-72
2023/07/21 02:00:22;;;;;;;6.55;5.25;;;;;;;15.04;100.00;101088.53;5192354;28;20034;-72
2023/07/21 02:02:54;;;;;;;6.05;5.30;;;;;;;14.95;100.00;101081.53;5201812;28;20049;-73
2023/07/21 02:05:27;;;;;;;6.00;5.50;;;;;;;15.01;100.00;101076.47;5200057;28;20030;-72
2023/07/21 02:07:59;;;;;;;5.95;5.40;;;;;;;15.01;100.00;101080.94;5194971;28;20479;-72
2023/07/21 02:10:30;;;;;;;5.95;5.45;;;;;;;14.96;100.00;101081.38;5200590;28;20022;-72
2023/07/21 02:13:04;;;;;;;6.10;5.50;;;;;;;14.95;100.00;101079.72;5198761;28;20025;-72
2023/07/21 02:15:35;;;;;;;5.80;5.28;;;;;;;14.85;100.00;101073.72;5197760;28;20127;-72
2023/07/21 02:18:06;;;;;;;5.85;5.35;;;;;;;14.85;100.00;101076.34;5201507;28;20022;-72
2023/07/21 02:20:38;;;;;;;5.63;5.07;;;;;;;14.87;100.00;101071.75;5198329;28;20038;-72
2023/07/21 02:23:09;;;;;;;5.65;5.13;;;;;;;14.74;100.00;101072.13;5200584;28;20368;-72
2023/07/21 02:25:41;;;;;;;6.50;5.40;;;;;;;14.76;100.00;101074.59;5205747;28;20471;-72
2023/07/21 02:28:13;;;;;;;5.83;5.23;;;;;;;14.74;100.00;101072.13;5197665;28;20494;-72
2023/07/21 02:30:44;;;;;;;8.88;6.30;;;;;;;14.74;100.00;101076.59;5199356;28;20288;-72
2023/07/21 02:33:15;;;;;;;6.80;5.30;;;;;;;14.70;100.00;101077.84;5198506;28;20030;-72
2023/07/21 02:35:51;;;;;;;8.20;5.05;;;;;;;14.64;100.00;101067.91;5200111;28;20038;-72
2023/07/21 02:38:23;;;;;;;7.53;5.38;;;;;;;14.67;100.00;101070.25;5201563;28;20038;-72
2023/07/21 02:40:55;;;;;;;7.63;5.10;;;;;;;14.63;100.00;101069.72;5196729;28;20019;-72
2023/07/21 02:43:27;;;;;;;8.00;5.60;;;;;;;14.67;100.00;101063.16;5198298;28;20029;-72
2023/07/21 02:45:58;;;;;;;6.15;5.55;;;;;;;14.58;100.00;101054.38;5194936;28;20022;-72
2023/07/21 02:48:32;;;;;;;6.80;4.90;;;;;;;14.52;100.00;101039.13;5201635;28;20041;-72
2023/07/21 02:51:03;;;;;;;6.30;5.70;;;;;;;14.61;100.00;101063.75;5196336;28;20038;-72
2023/07/21 02:53:35;;;;;;;7.72;6.15;;;;;;;14.64;100.00;101060.81;5197470;28;20037;-72
2023/07/21 02:56:06;;;;;;;5.50;5.00;;;;;;;14.54;100.00;101047.72;5198161;28;20049;-72
2023/07/21 02:58:37;;;;;;;6.22;4.75;;;;;;;14.62;100.00;101056.69;5200826;28;20030;-72
2023/07/21 03:01:09;;;;;;;5.75;5.15;;;;;;;14.57;100.00;101060.59;5197011;28;20022;-72
2023/07/21 03:03:41;;;;;;;5.90;4.93;;;;;;;14.51;100.00;101060.41;5200537;28;20033;-72
2023/07/21 03:06:13;;;;;;;5.20;4.78;;;;;;;14.47;100.00;101049.28;5197395;28;20602;-72
2023/07/21 03:08:44;;;;;;;6.03;5.43;;;;;;;14.48;100.00;101050.13;5196936;28;20066;-72
2023/07/21 03:11:17;;;;;;;5.22;4.72;;;;;;;14.49;100.00;101062.31;5198486;28;20038;-72
2023/07/21 03:13:48;;;;;;;5.18;4.68;;;;;;;14.43;100.00;101052.34;5194385;28;20033;-72
2023/07/21 03:16:20;;;;;;;5.47;4.97;;;;;;;14.46;100.00;101063.44;5207959;28;20026;-72
2023/07/21 03:18:51;;;;;;;5.57;5.07;;;;;;;14.41;100.00;101063.06;5202893;28;20081;-72
2023/07/21 03:21:22;;;;;;;5.53;4.95;;;;;;;14.36;100.00;101066.16;5203131;28;20030;-72
2023/07/21 03:23:55;;;;;;;5.32;4.82;;;;;;;14.34;100.00;101070.72;5201189;28;20034;-72
2023/07/21 03:26:27;;;;;;;;;;;;;;;15.11;100.00;101068.44;5199125;28;20018;-72
2023/07/21 03:28:59;;;;;;;5.93;5.32;;;;;;;14.35;100.00;101064.47;5197610;28;20315;-72
2023/07/21 03:31:30;;;;;;;5.43;4.93;;;;;;;14.30;100.00;101058.81;5198679;28;20060;-72
2023/07/21 03:34:02;;;;;;;6.20;5.57;;;;;;;14.31;100.00;101062.28;5200123;28;20037;-72
2023/07/21 03:36:33;;;;;;;5.50;4.80;;;;;;;14.22;100.00;101056.09;5198035;28;20010;-72
2023/07/21 03:39:04;;;;;;;5.47;4.93;;;;;;;14.28;100.00;101059.94;5197556;28;20034;-72
2023/07/21 03:41:36;;;;;;;5.20;4.70;;;;;;;14.22;100.00;101058.75;5202544;28;20499;-72
2023/07/21 03:44:09;;;;;;;5.97;5.30;;;;;;;14.28;100.00;101065.22;5198160;28;20036;-72
2023/07/21 03:46:41;;;;;;;6.50;5.35;;;;;;;14.21;100.00;101061.53;5201483;28;20023;-72
2023/07/21 03:49:13;;;;;;;6.88;6.18;;;;;;;14.22;100.00;101066.66;5194799;28;20046;-72
2023/07/21 03:51:44;;;;;;;5.63;5.13;;;;;;;14.25;100.00;101060.25;5195781;28;20042;-72
2023/07/21 03:54:15;;;;;;;5.80;5.20;;;;;;;14.18;100.00;101051.28;5204851;28;20042;-72
2023/07/21 03:56:46;;;;;;;6.18;4.93;;;;;;;14.18;100.00;101065.28;5206621;28;20029;-72
2023/07/21 03:59:18;;;;;;;6.70;6.10;;;;;;;14.20;100.00;101063.31;5199956;28;20030;-72
2023/07/21 04:01:49;;;;;;;6.80;6.10;;;;;;;14.18;100.00;101065.28;5208811;28;20018;-72
2023/07/21 04:04:21;;;;;;;6.40;5.80;;;;;;;14.14;100.00;101061.28;5204095;28;20030;-72
2023/07/21 04:06:52;;;;;;;9.13;6.03;;;;;;;14.11;100.00;101051.88;5199944;28;20026;-72
2023/07/21 04:09:23;;;;;;;6.68;6.07;;;;;;;14.10;100.00;101044.94;5205295;28;20049;-72
2023/07/21 04:11:54;;;;;;;7.82;6.65;;;;;;;14.05;100.00;101047.22;5198981;28;20034;-72
2023/07/21 04:14:26;;;;;;;7.00;6.40;;;;;;;14.06;100.00;101037.50;5201003;28;20018;-72
2023/07/21 04:16:57;;;;;;;8.43;7.10;;;;;;;14.04;100.00;101036.81;5194384;28;20403;-72
2023/07/21 04:19:29;;;;;;;7.68;6.97;;;;;;;14.10;100.00;101039.69;5200803;28;20048;-72
2023/07/21 04:22:00;;;;;;;8.20;7.40;;;;;;;14.12;100.00;101036.88;5199910;28;20450;-72
2023/07/21 04:24:33;;;;;;;9.27;8.35;;;;;;;14.08;100.00;101025.00;5200540;28;20054;-72
2023/07/21 04:27:05;;;;;;;8.85;8.02;;;;;;;14.17;100.00;101023.25;5199752;28;20044;-72
2023/07/21 04:29:36;;;;;;;9.75;8.35;;;;;;;14.20;100.00;101026.44;5203385;28;20466;-72
2023/07/21 04:32:07;;;;;;;8.80;8.00;;;;;;;14.22;100.00;101035.03;5196222;28;20034;-72
2023/07/21 04:34:38;;;;;;;9.80;8.82;;;;;;;14.27;100.00;101029.31;5204840;28;20497;-72
2023/07/21 04:37:10;;;;;;;9.45;8.48;;;;;;;14.28;100.00;101034.44;5197266;28;20041;-72
2023/07/21 04:39:41;;;;;;;9.52;8.68;;;;;;;14.33;100.00;101034.00;5203090;28;20053;-72
2023/07/21 04:42:13;;;;;;;9.98;8.98;;;;;;;14.27;100.00;101027.50;5204323;28;20049;-72
2023/07/21 04:44:44;;;;;;;10.25;9.35;;;;;;;14.30;100.00;101034.28;5201753;28;20029;-72
2023/07/21 04:47:16;;;;;;;10.23;9.32;;;;;;;14.35;100.00;101029.38;5200505;28;20113;-72
2023/07/21 04:49:48;;;;;;;9.90;8.88;;;;;;;14.43;100.00;101028.63;5200273;28;20031;-72
2023/07/21 04:52:19;;;;;;;9.77;8.87;;;;;;;14.47;100.00;101027.34;5198967;28;20034;-72
2023/07/21 04:54:51;;;;;;;10.68;9.63;;;;;;;14.46;100.00;101023.88;5196628;28;20018;-72
2023/07/21 04:57:22;;;;;;;11.73;10.55;;;;;;;14.55;100.00;101024.84;5199358;28;20459;-72
2023/07/21 04:59:53;;;;;;;11.38;10.20;;;;;;;14.64;100.00;101020.44;5195803;28;20396;-72
2023/07/21 05:02:28;;;;;;;11.10;10.20;;;;;;;14.60;100.00;101020.75;5207187;28;20471;-73
2023/07/21 05:04:59;;;;;;;11.48;10.30;;;;;;;14.64;100.00;101020.44;5200134;28;20306;-73
2023/07/21 05:07:31;;;;;;;11.15;10.18;;;;;;;14.77;100.00;101024.38;5197645;28;20683;-73
2023/07/21 05:10:03;;;;;;;11.52;10.43;;;;;;;14.83;100.00;101029.00;5194927;28;20459;-73
2023/07/21 05:12:35;;;;;;;11.37;10.37;;;;;;;14.84;100.00;101025.38;5198582;28;20396;-71
2023/07/21 05:15:07;;;;;;;11.32;10.20;;;;;;;14.88;100.00;101011.88;5199337;28;20081;-71
2023/07/21 05:17:38;;;;;;;11.40;10.32;;;;;;;14.98;100.00;101015.28;5200549;28;20026;-71
2023/07/21 05:20:11;;;;;;;11.68;10.57;;;;;;;15.11;100.00;101026.22;5200558;28;20028;-72
2023/07/21 05:22:42;;;;;;;11.95;10.50;;;;;;;15.15;100.00;101019.66;5197862;28;20061;-72
2023/07/21 05:25:17;;;;;;;11.73;10.63;;;;;;;15.22;100.00;101025.97;5200431;28;20124;-72
2023/07/21 05:27:49;;;;;;;11.65;10.55;;;;;;;15.31;100.00;101022.41;5197349;28;20128;-72
2023/07/21 05:30:21;;;;;;;13.37;11.23;;;;;;;15.38;100.00;101019.97;5207284;28;20026;-72
2023/07/21 05:32:56;;;;;;;12.02;10.77;;;;;;;15.45;100.00;101028.91;5199678;28;20030;-72
2023/07/21 05:35:29;;;;;;;12.13;11.13;;;;;;;15.48;100.00;101033.03;5201148;28;20027;-72
2023/07/21 05:38:00;;;;;;;11.73;10.50;;;;;;;15.67;100.00;101026.72;5199054;28;20094;-72
2023/07/21 05:40:31;;;;;;;11.45;10.45;;;;;;;15.72;100.00;101032.34;5197938;28;20075;-72
2023/07/21 05:43:02;;;;;;;11.85;10.77;;;;;;;15.81;100.00;101026.94;5200337;28;20746;-72
2023/07/21 05:45:40;;;;;;;11.38;10.38;;;;;;;16.00;100.00;101017.94;5201333;28;20028;-72
2023/07/21 05:48:12;;;;;;;10.95;10.05;;;;;;;16.03;100.00;101022.91;5203645;28;20033;-72
2023/07/21 05:50:43;;;;;;;11.50;10.35;;;;;;;16.12;100.00;101031.66;5197486;28;20051;-72
2023/07/21 05:53:14;;;;;;;11.55;10.48;;;;;;;16.24;100.00;101035.66;5196890;28;20472;-72
2023/07/21 05:55:50;;;;;;;11.48;10.38;;;;;;;16.34;100.00;101029.41;5200919;28;20030;-72
2023/07/21 05:58:22;;;;;;;11.57;10.60;;;;;;;16.40;100.00;101032.22;5201930;28;20026;-72
2023/07/21 06:00:54;;;;;;;10.93;9.90;;;;;;;16.45;100.00;101037.84;5200422;28;20026;-72
2023/07/21 06:03:26;;;;;;;9.88;8.98;;;;;;;16.54;100.00;101034.19;5199888;28;20062;-72
2023/07/21 06:05:58;;;;;;;11.50;10.40;;;;;;;16.64;100.00;101041.16;5195067;28;20026;-72
2023/07/21 06:08:30;;;;;;;11.07;10.02;;;;;;;16.71;100.00;101037.69;5197484;28;20825;-73
2023/07/21 06:11:02;;;;;;;11.60;10.40;;;;;;;16.74;100.00;101026.81;5199956;28;20033;-73
2023/07/21 06:13:34;;;;;;;11.02;9.93;;;;;;;16.92;100.00;101039.84;5205077;28;20045;-72
2023/07/21 06:16:05;;;;;;;10.98;9.98;;;;;;;17.02;100.00;101039.69;5199119;28;20026;-73
2023/07/21 06:18:36;;;;;;;10.63;9.68;;;;;;;17.03;100.00;101031.56;5199253;28;20084;-72
2023/07/21 06:21:08;;;;;;;11.48;10.45;;;;;;;17.13;100.00;101033.22;5198229;28;20033;-72
2023/07/21 06:23:39;;;;;;;11.05;9.93;;;;;;;17.24;100.00;101031.06;5197722;28;20041;-73
2023/07/21 06:26:10;;;;;;;11.30;10.30;;;;;;;17.32;100.00;101027.56;5192930;28;20042;-73
2023/07/21 06:28:41;;;;;;;10.90;9.80;;;;;;;17.46;100.00;101026.00;5200899;28;20042;-73
2023/07/21 06:31:14;;;;;;;10.98;9.88;;;;;;;17.55;100.00;101032.94;5191920;28;20300;-73
2023/07/21 06:33:46;;;;;;;12.13;10.38;;;;;;;17.67;100.00;101034.22;5195201;28;20033;-72
2023/07/21 06:36:17;;;;;;;11.13;10.13;;;;;;;17.76;100.00;101024.44;5200163;28;20029;-73
2023/07/21 06:38:49;;;;;;;10.75;9.65;;;;;;;17.86;100.00;101032.19;5196091;28;20025;-73
2023/07/21 06:41:20;;;;;;;11.60;10.40;;;;;;;17.95;100.00;101028.47;5201518;28;20114;-73
2023/07/21 06:43:51;;;;;;;12.38;11.13;;;;;;;18.04;100.00;101019.50;5195881;28;20304;-72
2023/07/21 06:46:22;;;;;;;13.10;9.85;;;;;;;18.08;100.00;101025.28;5198134;28;20033;-73
2023/07/21 06:48:54;;;;;;;11.55;10.40;;;;;;;18.26;100.00;101020.53;5201320;23;20038;-77
2023/07/21 06:51:25;;;;;;;11.48;10.35;;;;;;;18.32;100.00;101029.59;5189920;28;20033;-77
2023/07/21 06:53:56;;;;;;;13.52;11.00;;;;;;;18.35;100.00;101013.34;5199892;28;20045;-77
2023/07/21 06:56:28;;;;;;;12.43;10.40;;;;;;;18.47;100.00;101017.22;5200420;28;20030;-77
2023/07/21 06:58:59;;;;;;;11.23;10.02;;;;;;;18.56;100.00;101018.81;5197745;28;20716;-77
2023/07/21 07:01:30;;;;;;;11.68;10.48;;;;;;;18.65;100.00;101020.41;5200395;28;20037;-77
2023/07/21 07:04:02;;;;;;;12.27;11.18;;;;;;;18.67;100.00;101021.03;5196100;28;20030;-77
2023/07/21 07:06:33;;;;;;;11.15;10.05;;;;;;;18.77;100.00;101023.47;5194901;28;20112;-76
2023/07/21 07:09:05;;;;;;;10.77;9.65;;;;;;;18.90;100.00;101020.19;5195426;28;20041;-77
2023/07/21 07:11:36;;;;;;;11.70;10.50;;;;;;;18.97;100.00;101018.47;5198210;28;20033;-77
2023/07/21 07:14:07;;;;;;;11.60;10.50;;;;;;;19.06;100.00;101014.75;5194570;28;20088;-76
2023/07/21 07:16:38;;;;;;;13.23;10.88;;;;;;;19.22;100.00;101012.94;5202811;28;20032;-76
2023/07/21 07:19:10;;;;;;;10.93;9.83;;;;;;;19.23;100.00;101015.38;5198854;28;20112;-77
2023/07/21 07:21:41;;;;;;;11.30;10.20;;;;;;;19.40;100.00;101011.56;5197914;28;20597;-76
2023/07/21 07:24:12;;;;;;;12.37;11.07;;;;;;;19.55;100.00;101013.38;5197232;28;20026;-77
2023/07/21 07:26:44;;;;;;;12.20;11.00;;;;;;;19.63;100.00;101002.69;5204946;28;20022;-76
2023/07/21 07:29:20;;;;;;;15.20;12.00;;;;;;;20.04;100.00;100997.63;5194705;28;20216;-76
2023/07/21 07:31:51;;;;;;;12.85;11.55;;;;;;;20.06;96.68;101008.88;5198525;28;20030;-76
2023/07/21 07:34:23;;;;;;;11.80;10.73;;;;;;;20.35;99.51;101010.63;5205184;28;20056;-76
2023/07/21 07:36:54;;;;;;;12.70;11.60;;;;;;;20.48;95.05;101001.94;5203179;28;20499;-76
2023/07/21 07:39:25;;;;;;;15.05;11.43;;;;;;;20.61;94.13;101010.09;5195784;28;20056;-77
2023/07/21 07:41:57;;;;;;;11.10;9.37;;;;;;;20.62;86.30;101022.38;5197745;28;20117;-76
2023/07/21 07:44:28;;;;;;;11.80;10.73;;;;;;;20.71;86.96;101031.03;5192762;28;20062;-77
2023/07/21 07:46:59;;;;;;;11.10;10.10;;;;;;;20.78;87.87;101025.78;5201028;28;20065;-76
2023/07/21 07:49:31;;;;;;;11.33;10.17;;;;;;;20.96;85.41;101023.44;5198466;28;20089;-75
2023/07/21 07:52:02;;;;;;;9.83;8.93;;;;;;;20.99;77.75;101024.91;5198113;28;20087;-75
2023/07/21 07:54:35;;;;;;;11.30;10.20;;;;;;;20.99;80.29;101022.25;5194474;28;20037;-75
2023/07/21 07:57:08;;;;;;;10.50;9.52;;;;;;;21.05;81.40;101027.59;5201558;28;20185;-75
2023/07/21 07:59:39;;;;;;;12.55;10.23;;;;;;;21.10;81.50;101029.69;5191825;28;20038;-77
2023/07/21 08:02:10;;;;;;;10.73;9.27;;;;;;;21.28;77.90;101030.00;5200808;28;20037;-77
2023/07/21 08:04:41;;;;;;;10.03;9.03;;;;;;;21.28;74.79;101024.69;5197827;28;20027;-75
2023/07/21 08:07:13;;;;;;;8.73;7.90;;;;;;;21.33;73.57;101024.97;5198197;28;20038;-75
2023/07/21 08:09:44;;;;;;;9.37;8.33;;;;;;;21.36;73.11;101024.53;5200405;28;20075;-75
2023/07/21 08:12:15;;;;;;;11.97;9.23;;;;;;;21.46;74.74;101018.88;5207760;28;20033;-75
2023/07/21 08:14:46;;;;;;;12.17;9.63;;;;;;;21.43;73.90;101016.59;5204553;28;20034;-76
2023/07/21 08:17:18;;;;;;;12.33;9.50;;;;;;;21.48;71.68;101018.66;5201978;28;20483;-75
2023/07/21 08:19:49;;;;;;;10.37;9.17;;;;;;;21.59;70.36;101015.44;5196082;28;20483;-75
2023/07/21 08:22:20;;;;;;;10.77;9.07;;;;;;;21.69;73.06;101015.91;5197829;28;20033;-75
2023/07/21 08:24:51;;;;;;;10.67;9.37;;;;;;;21.80;69.38;101017.16;5200379;28;20396;-76
2023/07/21 08:27:23;;;;;;;11.63;10.17;;;;;;;21.90;69.02;101012.28;5198705;28;20490;-76
2023/07/21 08:29:54;;;;;;;13.30;10.67;;;;;;;21.97;69.61;101009.63;5198174;28;20499;-76
2023/07/21 08:32:26;;;;;;;10.20;9.10;;;;;;;22.03;72.23;101011.50;5198324;28;20053;-76
2023/07/21 08:34:57;;;;;;;11.67;10.47;;;;;;;22.10;74.08;101009.66;5201325;28;20419;-76
2023/07/21 08:37:30;;;;;;;13.03;11.83;;;;;;;22.22;68.29;101013.41;5195386;28;20542;-76
2023/07/21 08:40:03;;;;;;;14.70;12.00;;;;;;;22.14;69.94;101013.59;5202708;28;20038;-76
2023/07/21 08:42:36;;;;;;;15.05;12.98;;;;;;;22.10;70.97;101015.00;5200004;28;20475;-76
2023/07/21 08:45:08;;;;;;;;;;;;;;;22.98;69.87;101014.91;5199568;28;20240;-76
2023/07/21 08:47:39;;;;;;;10.05;9.07;;;;;;;22.32;65.67;101015.69;5196573;28;20390;-76
2023/07/21 08:50:14;;;;;;;12.67;11.53;;;;;;;22.53;68.82;101015.50;5197651;28;20057;-76
2023/07/21 08:52:45;;;;;;;12.35;11.05;;;;;;;22.52;64.42;101013.84;5201004;28;20041;-76
2023/07/21 08:55:16;;;;;;;12.03;10.53;;;;;;;22.41;61.91;101013.66;5200218;28;20025;-76
2023/07/21 08:57:48;;;;;;;11.13;9.77;;;;;;;22.30;63.11;101025.75;5195155;28;20608;-76
2023/07/21 09:00:23;;;;;;;9.03;8.13;;;;;;;22.21;61.52;101024.31;5196480;28;20088;-76
2023/07/21 09:03:03;;;;;;;10.57;9.57;;;;;;;22.26;63.19;101027.19;5193133;28;20030;-76
2023/07/21 09:05:34;;;;;;;10.63;9.65;;;;;;;22.24;63.05;101022.06;5197067;28;20030;-76
2023/07/21 09:08:18;;;;;;;11.63;10.53;;;;;;;22.42;63.94;101015.28;5197615;28;20077;-76
2023/07/21 09:10:49;;;;;;;12.02;10.90;;;;;;;22.28;61.06;101022.47;5196740;28;20116;-77
2023/07/21 09:13:20;;;;;;;12.53;11.23;;;;;;;22.34;61.74;101016.31;5193120;28;20036;-76
2023/07/21 09:15:57;;;;;;;11.83;10.20;;;;;;;22.48;65.13;101020.63;5192959;28;20117;-76
2023/07/21 09:18:31;;;;;;;13.10;11.90;;;;;;;22.49;60.61;101014.25;5195822;28;20494;-77
2023/07/21 09:21:02;;;;;;;14.52;13.23;;;;;;;22.67;62.01;101011.00;5197002;28;20136;-77
2023/07/21 09:23:36;;;;;;;16.20;14.63;;;;;;;23.00;60.40;101011.00;5199970;28;20076;-77
2023/07/21 09:26:07;;;;;;;16.67;15.05;;;;;;;23.13;59.36;101006.66;5198158;28;20026;-77
2023/07/21 09:28:44;;;;;;;16.30;14.67;;;;;;;23.33;57.21;100999.41;5200062;28;20540;-77
2023/07/21 09:31:16;;;;;;;15.88;14.35;;;;;;;23.56;57.12;101001.56;5202424;28;20053;-77
2023/07/21 09:33:47;;;;;;;16.23;14.60;;;;;;;23.79;54.96;101007.28;5178246;28;20074;-77
2023/07/21 09:36:19;;;;;;;14.80;13.40;;;;;;;24.13;52.89;100996.38;5200190;28;20028;-77
2023/07/21 09:38:50;;;;;;;15.07;13.50;;;;;;;24.16;50.38;101004.78;5202119;28;20026;-77
2023/07/21 09:41:24;;;;;;;14.17;12.67;;;;;;;24.14;49.07;100998.03;5198620;28;20041;-77
2023/07/21 09:43:56;;;;;;;16.13;14.40;;;;;;;24.22;50.17;100992.41;5199169;28;20466;-77
2023/07/21 09:46:29;;;;;;;15.80;14.13;;;;;;;24.16;49.81;100986.06;5197176;28;20426;-77
2023/07/21 09:49:00;;;;;;;17.63;13.50;;;;;;;24.42;50.08;100987.75;5198820;28;20038;-77
2023/07/21 09:51:37;;;;;;;12.47;11.33;;;;;;;24.71;49.43;100993.50;5197062;28;20538;-77
2023/07/21 09:54:16;;;;;;;13.48;12.18;;;;;;;24.62;48.75;100978.72;5200984;28;20483;-77
2023/07/21 09:56:49;;;;;;;14.13;12.82;;;;;;;24.38;47.70;100981.16;5197004;28;20089;-77
2023/07/21 09:59:20;;;;;;;12.70;11.50;;;;;;;24.65;47.33;100976.44;5198951;28;20526;-77
2023/07/21 10:01:52;;;;;;;14.60;11.63;;;;;;;24.57;47.71;100986.63;5199829;28;20029;-77
2023/07/21 10:04:23;;;;;;;11.90;10.80;;;;;;;24.46;47.71;100988.13;5198849;28;20030;-77
2023/07/21 10:06:58;;;;;;;12.33;10.53;;;;;;;24.28;49.12;100996.88;5196971;28;20026;-77
2023/07/21 10:09:32;;;;;;;12.38;11.27;;;;;;;23.98;48.00;100988.63;5194046;28;20058;-76
2023/07/21 10:12:11;;;;;;;10.05;9.07;;;;;;;24.06;49.98;100990.28;5199684;28;20032;-76
2023/07/21 10:14:44;;;;;;;13.20;11.80;;;;;;;23.68;53.89;100996.44;5180544;28;20030;-76
2023/07/21 10:17:24;;;;;;;14.23;12.73;;;;;;;23.60;60.29;100999.31;5197859;28;20029;-76
2023/07/21 10:20:08;;;;;;;15.82;13.55;;;;;;;23.38;68.87;100988.91;5203671;28;20034;-76
2023/07/21 10:22:55;;;;;;;17.40;14.43;;;;;;;23.16;71.28;101000.91;5198984;28;20642;-76
2023/07/21 10:25:26;;;;;;;17.38;15.70;;;;;;;22.49;80.91;100995.56;5197973;28;20084;-76
2023/07/21 10:28:04;;;;;;;17.03;15.33;;;;;;;22.74;83.35;101001.13;5198605;28;20034;-76
2023/07/21 10:30:35;;;;;;;17.48;15.80;;;;;;;22.43;87.50;101000.94;5200647;28;20026;-75
2023/07/21 10:33:18;;;;;;;23.20;16.53;;;;;;;22.57;81.29;101007.91;5200477;28;20052;-75
2023/07/21 10:35:49;;;;;;;25.17;17.33;;;;;;;22.04;98.42;101011.28;5201127;28;20084;-76
2023/07/21 10:38:22;;;;;;;23.87;18.70;;;;;;;21.67;100.00;101033.09;5200899;28;20678;-77
2023/07/21 10:40:53;;;;;;;;;;;;;;;22.54;93.61;101029.66;5197936;28;20486;-77
2023/07/21 10:43:24;;;;;;;21.97;17.70;;;;;;;21.10;100.00;101027.88;5200079;28;19918;-76
2023/07/21 10:45:56;;;;;;;20.27;18.43;;;;;;;20.77;100.00;101008.97;5196802;28;20033;-76
2023/07/21 10:48:27;;;;;;;19.90;18.10;;;;;;;20.67;100.00;101026.28;5200321;28;20360;-76
2023/07/21 10:50:59;;;;;;;19.73;17.83;;;;;;;20.62;100.00;101016.22;5197460;28;20045;-76
2023/07/21 10:53:31;;;;;;;20.83;18.92;;;;;;;20.48;100.00;101030.38;5199760;28;20030;-76
2023/07/21 10:56:07;;;;;;;20.23;18.43;;;;;;;20.30;100.00;101028.97;5201989;28;20100;-76
2023/07/21 10:58:38;;;;;;;20.50;18.60;;;;;;;20.21;100.00;101043.44;5197866;28;20026;-76
2023/07/21 11:01:10;;;;;;;16.40;14.67;;;;;;;20.02;100.00;101036.88;5197624;28;20030;-76
2023/07/21 11:03:42;;;;;;;12.93;11.63;;;;;;;19.75;100.00;101030.44;5200855;28;20026;-76
2023/07/21 11:06:14;;;;;;;9.30;8.38;;;;;;;19.51;100.00;101042.16;5180320;28;20300;-76
2023/07/21 11:08:46;;;;;;;9.83;7.27;;;;;;;19.30;100.00;101050.84;5198846;28;20472;-76
2023/07/21 11:11:17;;;;;;;7.50;6.80;;;;;;;19.13;100.00;101050.19;5200116;28;20566;-76
2023/07/21 11:13:49;;;;;;;8.67;7.27;;;;;;;19.25;100.00;101057.72;5191823;28;20137;-76
2023/07/21 11:16:20;;;;;;;7.67;6.97;;;;;;;19.08;100.00;101057.03;5201548;28;20052;-76
2023/07/21 11:18:51;;;;;;;7.53;6.83;;;;;;;19.09;100.00;101066.66;5196790;28;20034;-77
2023/07/21 11:21:22;;;;;;;7.87;7.07;;;;;;;19.16;100.00;101071.06;5199448;28;20037;-77
2023/07/21 11:24:00;;;;;;;8.03;7.23;;;;;;;19.29;100.00;101074.94;5202097;28;20026;-77
2023/07/21 11:26:31;;;;;;;8.57;7.78;;;;;;;19.20;100.00;101064.38;5197775;28;20521;-77
2023/07/21 11:29:05;;;;;;;7.07;6.47;;;;;;;19.33;100.00;101061.13;5196221;28;20037;-77
2023/07/21 11:31:37;;;;;;;9.95;7.05;;;;;;;19.37;100.00;101056.25;5197611;28;20037;-76
2023/07/21 11:34:25;;;;;;;7.23;6.53;;;;;;;19.75;100.00;101054.34;5198256;28;20053;-76
2023/07/21 11:37:00;;;;;;;6.35;5.75;;;;;;;19.77;100.00;101048.84;5201224;28;20062;-76